createdAt,value
2022-10-31T00:02:08.581Z,27.45
2022-10-31T00:04:39.235Z,30.55
2022-10-31T00:07:09.605Z,29.90
2022-10-31T00:09:39.897Z,32.20
2022-10-31T00:12:10.275Z,25.13
2022-10-31T00:14:42.139Z,31.95
2022-10-31T00:19:42.397Z,30.83
2022-10-31T00:22:12.588Z,30.13
2022-10-31T00:24:43.418Z,32.05
2022-10-31T00:27:13.584Z,28.80
2022-10-31T00:29:45.328Z,28.63
2022-10-31T00:32:15.790Z,26.90
2022-10-31T00:34:46.178Z,27.45
2022-10-31T00:37:16.666Z,32.88
2022-10-31T00:39:50.287Z,33.22
2022-10-31T00:42:20.425Z,30.38
2022-10-31T00:44:52.187Z,27.58
2022-10-31T00:47:25.015Z,26.27
2022-10-31T00:49:55.306Z,31.70
2022-10-31T00:52:25.546Z,27.10
2022-10-31T00:54:55.846Z,27.52
2022-10-31T00:57:26.017Z,27.58
2022-10-31T00:59:58.016Z,28.52
2022-10-31T01:04:58.717Z,26.60
2022-10-31T01:07:28.872Z,26.15
2022-10-31T01:09:59.388Z,27.38
2022-10-31T01:12:30.150Z,26.02
2022-10-31T01:15:02.629Z,28.77
2022-10-31T01:17:33.654Z,24.88
2022-10-31T01:20:04.674Z,32.30
2022-10-31T01:22:36.816Z,35.42
2022-10-31T01:25:08.635Z,28.40
2022-10-31T01:30:13.789Z,38.17
2022-10-31T01:32:43.859Z,26.48
2022-10-31T01:35:14.158Z,32.35
2022-10-31T01:37:44.150Z,28.90
2022-10-31T01:40:14.599Z,28.73
2022-10-31T01:42:44.779Z,30.02
2022-10-31T01:45:18.010Z,29.75
2022-10-31T01:47:50.027Z,34.75
2022-10-31T01:50:31.238Z,31.85
2022-10-31T01:53:03.109Z,28.23
2022-10-31T01:55:38.088Z,31.38
2022-10-31T01:58:12.701Z,32.47
2022-10-31T02:00:49.780Z,29.30
2022-10-31T02:03:21.470Z,30.15
2022-10-31T02:05:53.210Z,30.33
2022-10-31T02:08:30.101Z,33.33
2022-10-31T02:11:03.490Z,34.58
2022-10-31T02:13:33.809Z,30.40
2022-10-31T02:16:05.861Z,31.30
2022-10-31T02:18:37.218Z,26.90
2022-10-31T02:21:18.128Z,30.10
2022-10-31T02:24:24.437Z,32.97
2022-10-31T02:27:10.737Z,30.55
2022-10-31T02:30:09.839Z,29.73
2022-10-31T02:33:08.849Z,31.30
2022-10-31T02:35:51.402Z,29.60
2022-10-31T02:38:31.269Z,33.28
2022-10-31T02:41:10.319Z,28.92
2022-10-31T02:43:55.509Z,30.83
2022-10-31T02:46:33.869Z,30.20
2022-10-31T02:49:10.880Z,34.83
2022-10-31T02:51:43.128Z,30.38
2022-10-31T02:54:26.929Z,32.22
2022-10-31T02:57:01.890Z,36.85
2022-10-31T02:59:35.588Z,29.02
2022-10-31T03:02:20.448Z,30.40
2022-10-31T03:05:21.879Z,31.15
2022-10-31T03:08:02.617Z,31.35
2022-10-31T03:10:43.466Z,36.50
2022-10-31T03:16:08.299Z,31.17
2022-10-31T03:18:43.768Z,27.63
2022-10-31T03:21:20.291Z,31.38
2022-10-31T03:23:52.139Z,38.35
2022-10-31T03:26:26.722Z,32.50
2022-10-31T03:29:02.280Z,30.65
2022-10-31T03:31:36.331Z,34.53
2022-10-31T03:34:08.892Z,37.97
2022-10-31T03:36:43.079Z,39.20
2022-10-31T03:39:17.221Z,56.92
2022-10-31T03:41:51.119Z,45.50
2022-10-31T03:44:24.940Z,44.05
2022-10-31T03:47:03.297Z,82.70
2022-10-31T03:49:35.401Z,79.57
2022-10-31T03:52:15.330Z,99.70
2022-10-31T03:54:47.828Z,150.93
2022-10-31T03:57:25.881Z,119.88
2022-10-31T04:00:02.839Z,113.80
2022-10-31T04:02:38.082Z,89.10
2022-10-31T04:05:10.960Z,95.03
2022-10-31T04:07:47.839Z,78.63
2022-10-31T04:10:19.679Z,49.08
2022-10-31T04:12:56.276Z,112.78
2022-10-31T04:15:31.020Z,99.53
2022-10-31T04:18:04.891Z,82.95
2022-10-31T04:20:37.050Z,55.40
2022-10-31T04:23:14.778Z,80.47
2022-10-31T04:25:46.880Z,65.20
2022-10-31T04:30:53.132Z,84.82
2022-10-31T04:33:23.589Z,93.43
2022-10-31T04:35:54.470Z,65.68
2022-10-31T04:38:26.191Z,78.00
2022-10-31T04:43:45.209Z,97.03
2022-10-31T04:46:17.669Z,48.00
2022-10-31T04:48:48.034Z,49.53
2022-10-31T04:51:19.167Z,46.95
2022-10-31T04:53:51.069Z,100.18
2022-10-31T04:56:44.647Z,44.40
2022-10-31T04:59:21.502Z,47.22
2022-10-31T05:01:57.452Z,57.28
2022-10-31T05:04:40.361Z,94.05
2022-10-31T05:07:11.169Z,111.38
2022-10-31T05:09:42.959Z,68.82
2022-10-31T05:12:13.233Z,40.90
2022-10-31T05:15:03.970Z,67.30
2022-10-31T05:17:53.473Z,41.47
2022-10-31T05:20:47.678Z,49.40
2022-10-31T05:23:30.608Z,49.15
2022-10-31T05:26:02.360Z,118.55
2022-10-31T05:28:32.549Z,44.70
2022-10-31T05:31:03.422Z,55.10
2022-10-31T05:33:34.628Z,57.65
2022-10-31T05:36:43.628Z,50.67
2022-10-31T05:39:20.818Z,96.63
2022-10-31T05:41:55.408Z,53.25
2022-10-31T05:44:29.619Z,56.45
2022-10-31T05:47:26.920Z,53.65
2022-10-31T05:50:15.752Z,78.85
2022-10-31T05:52:57.100Z,72.65
2022-10-31T05:55:38.128Z,56.33
2022-10-31T05:58:23.976Z,48.60
2022-10-31T06:01:03.618Z,66.63
2022-10-31T06:03:34.330Z,77.55
2022-10-31T06:06:07.029Z,65.63
2022-10-31T06:08:41.209Z,55.20
2022-10-31T06:11:17.450Z,64.55
2022-10-31T06:14:15.804Z,72.28
2022-10-31T06:16:54.590Z,55.92
2022-10-31T06:19:47.500Z,81.15
2022-10-31T06:22:23.269Z,53.88
2022-10-31T06:24:54.033Z,88.45
2022-10-31T06:27:37.742Z,57.65
2022-10-31T06:30:17.007Z,55.00
2022-10-31T06:32:48.868Z,53.85
2022-10-31T06:35:19.789Z,61.90
2022-10-31T06:37:55.238Z,61.83
2022-10-31T06:40:39.270Z,59.08
2022-10-31T06:43:29.790Z,51.85
2022-10-31T06:46:21.909Z,56.92
2022-10-31T06:49:15.527Z,67.20
2022-10-31T06:51:53.619Z,77.55
2022-10-31T06:54:23.789Z,69.00
2022-10-31T06:56:54.109Z,72.22
2022-10-31T06:59:25.488Z,52.92
2022-10-31T07:02:11.705Z,56.95
2022-10-31T07:04:43.709Z,55.30
2022-10-31T07:07:17.520Z,60.70
2022-10-31T07:09:48.958Z,56.40
2022-10-31T07:12:21.721Z,52.85
2022-10-31T07:14:59.479Z,52.38
2022-10-31T07:17:31.979Z,65.43
2022-10-31T07:20:04.097Z,58.63
2022-10-31T07:22:38.489Z,47.22
2022-10-31T07:25:12.047Z,50.88
2022-10-31T07:28:18.058Z,51.63
2022-10-31T07:30:53.669Z,48.92
2022-10-31T07:33:28.312Z,59.13
2022-10-31T07:36:18.580Z,67.85
2022-10-31T07:38:52.248Z,63.80
2022-10-31T07:41:23.450Z,59.55
2022-10-31T07:46:47.968Z,53.50
2022-10-31T07:49:43.139Z,57.42
2022-10-31T07:52:33.731Z,50.45
2022-10-31T07:55:04.880Z,55.85
2022-10-31T07:57:35.669Z,50.72
2022-10-31T08:00:06.950Z,49.10
2022-10-31T08:02:45.385Z,50.05
2022-10-31T08:05:54.405Z,56.38
2022-10-31T08:08:46.515Z,54.03
2022-10-31T08:11:17.856Z,57.40
2022-10-31T08:13:49.340Z,56.88
2022-10-31T08:16:20.428Z,48.70
2022-10-31T08:19:09.290Z,56.03
2022-10-31T08:21:44.491Z,51.40
2022-10-31T08:24:15.351Z,57.53
2022-10-31T08:26:48.394Z,55.90
2022-10-31T08:29:22.775Z,49.35
2022-10-31T08:31:53.690Z,63.83
2022-10-31T08:35:03.723Z,74.70
2022-10-31T08:37:57.260Z,50.00
2022-10-31T08:40:31.926Z,51.85
2022-10-31T08:43:04.549Z,53.25
2022-10-31T08:45:36.441Z,54.50
2022-10-31T08:48:12.490Z,45.83
2022-10-31T08:50:43.460Z,48.47
2022-10-31T08:53:17.612Z,48.25
2022-10-31T08:55:53.100Z,51.95
2022-10-31T08:58:28.790Z,54.50
2022-10-31T09:01:05.129Z,52.38
2022-10-31T09:03:36.040Z,42.08
2022-10-31T09:06:10.071Z,49.47
2022-10-31T09:08:42.711Z,46.25
2022-10-31T09:11:12.858Z,47.83
2022-10-31T09:14:01.970Z,53.92
2022-10-31T09:16:50.590Z,49.47
2022-10-31T09:19:25.880Z,49.83
2022-10-31T09:21:56.619Z,49.60
2022-10-31T09:26:58.925Z,44.03
2022-10-31T09:29:32.137Z,48.53
2022-10-31T09:32:04.231Z,47.47
2022-10-31T09:34:38.267Z,51.00
2022-10-31T09:37:17.929Z,46.45
2022-10-31T09:42:54.151Z,48.90
2022-10-31T09:45:35.071Z,51.00
2022-10-31T09:48:44.230Z,52.25
2022-10-31T09:51:28.769Z,48.97
2022-10-31T09:54:21.241Z,63.72
2022-10-31T09:56:53.657Z,51.03
2022-10-31T09:59:32.707Z,52.80
2022-10-31T10:02:07.667Z,50.92
2022-10-31T10:04:45.897Z,52.15
2022-10-31T10:07:39.597Z,58.95
2022-10-31T10:10:20.386Z,54.35
2022-10-31T10:13:19.354Z,58.38
2022-10-31T10:16:26.383Z,51.08
2022-10-31T10:19:09.178Z,50.25
2022-10-31T10:21:49.178Z,45.55
2022-10-31T10:24:36.608Z,48.45
2022-10-31T10:27:22.332Z,53.72
2022-10-31T10:30:03.592Z,49.08
2022-10-31T10:32:40.752Z,50.03
2022-10-31T10:35:22.217Z,57.80
2022-10-31T10:37:55.411Z,49.40
2022-10-31T10:40:29.243Z,45.03
2022-10-31T10:43:24.746Z,69.50
2022-10-31T10:46:32.810Z,46.45
2022-10-31T10:49:19.051Z,55.60
2022-10-31T10:55:07.439Z,48.67
2022-10-31T10:57:55.546Z,50.58
2022-10-31T11:00:27.500Z,57.15
2022-10-31T11:02:59.969Z,50.20
2022-10-31T11:05:38.171Z,49.42
2022-10-31T11:08:10.620Z,51.13
2022-10-31T11:10:41.409Z,52.53
2022-10-31T11:13:25.574Z,49.60
2022-10-31T11:16:03.329Z,47.17
2022-10-31T11:18:37.907Z,38.00
2022-10-31T11:21:08.660Z,47.85
2022-10-31T11:23:39.904Z,51.25
2022-10-31T11:26:22.421Z,45.83
2022-10-31T11:29:05.159Z,41.25
2022-10-31T11:31:39.606Z,42.22
2022-10-31T11:34:22.272Z,43.42
2022-10-31T11:36:52.862Z,32.67
2022-10-31T11:39:26.700Z,33.38
2022-10-31T11:42:07.698Z,33.78
2022-10-31T11:44:47.559Z,34.13
2022-10-31T11:47:20.629Z,31.75
2022-10-31T11:49:53.459Z,31.40
2022-10-31T11:52:31.092Z,29.25
2022-10-31T11:55:04.660Z,27.70
2022-10-31T11:57:45.866Z,27.65
2022-10-31T12:00:26.039Z,29.40
2022-10-31T12:03:15.311Z,28.90
2022-10-31T12:05:48.739Z,27.73
2022-10-31T12:08:20.366Z,26.15
2022-10-31T12:11:05.622Z,28.35
2022-10-31T12:13:40.886Z,30.20
2022-10-31T12:16:18.732Z,28.33
2022-10-31T12:19:01.295Z,26.88
2022-10-31T12:21:54.276Z,28.35
2022-10-31T12:25:07.549Z,24.90
2022-10-31T12:27:58.900Z,24.83
2022-10-31T12:30:37.458Z,26.20
2022-10-31T12:33:29.153Z,27.40
2022-10-31T12:36:15.331Z,25.50
2022-10-31T12:39:23.990Z,27.58
2022-10-31T12:41:58.690Z,28.20
2022-10-31T12:44:50.809Z,24.80
2022-10-31T12:47:56.598Z,24.65
2022-10-31T12:50:37.649Z,23.38
2022-10-31T12:53:21.982Z,23.83
2022-10-31T12:56:03.088Z,28.02
2022-10-31T12:58:38.241Z,26.40
2022-10-31T13:01:15.106Z,24.58
2022-10-31T13:03:51.479Z,26.10
2022-10-31T13:06:26.949Z,24.25
2022-10-31T13:09:00.851Z,27.30
2022-10-31T13:11:38.578Z,28.67
2022-10-31T13:14:15.091Z,24.88
2022-10-31T13:16:49.440Z,23.50
2022-10-31T13:19:24.441Z,25.13
2022-10-31T13:22:03.355Z,30.67
2022-10-31T13:24:39.029Z,27.10
2022-10-31T13:27:21.729Z,26.45
2022-10-31T13:30:03.582Z,28.58
2022-10-31T13:32:44.104Z,29.63
2022-10-31T13:35:22.235Z,28.35
2022-10-31T13:37:59.555Z,31.45
2022-10-31T13:40:40.547Z,30.77
2022-10-31T13:43:22.323Z,27.38
2022-10-31T13:48:44.088Z,28.38
2022-10-31T13:51:14.917Z,25.95
2022-10-31T13:54:00.989Z,29.40
2022-10-31T13:56:35.051Z,27.40
2022-10-31T13:59:26.616Z,26.08
2022-10-31T14:02:02.533Z,25.75
2022-10-31T14:04:40.737Z,28.05
2022-10-31T14:07:13.922Z,39.30
2022-10-31T14:09:59.092Z,28.42
2022-10-31T14:12:34.403Z,29.45
2022-10-31T14:15:16.984Z,36.10
2022-10-31T14:17:52.250Z,33.15
2022-10-31T14:20:43.223Z,32.25
2022-10-31T14:23:44.053Z,32.78
2022-10-31T14:26:35.655Z,38.55
2022-10-31T14:29:27.469Z,32.83
2022-10-31T14:32:12.521Z,36.03
2022-10-31T14:34:45.314Z,32.08
2022-10-31T14:37:28.112Z,33.15
2022-10-31T14:40:21.679Z,32.60
2022-10-31T14:43:07.372Z,32.60
2022-10-31T14:45:47.444Z,28.88
2022-10-31T14:48:36.964Z,31.05
2022-10-31T14:51:16.222Z,30.38
2022-10-31T14:53:51.373Z,33.53
2022-10-31T14:56:27.205Z,27.23
2022-10-31T14:59:00.475Z,27.90
2022-10-31T15:01:32.904Z,30.13
2022-10-31T15:04:23.236Z,29.45
2022-10-31T15:07:02.613Z,30.20
2022-10-31T15:09:34.851Z,27.13
2022-10-31T15:12:24.112Z,32.05
2022-10-31T15:14:55.384Z,30.05
2022-10-31T15:17:26.903Z,35.35
2022-10-31T15:20:01.374Z,32.30
2022-10-31T15:22:34.302Z,29.08
2022-10-31T15:27:36.742Z,35.80
2022-10-31T15:30:19.215Z,41.30
2022-10-31T15:32:57.550Z,59.83
2022-10-31T15:35:31.846Z,35.95
2022-10-31T15:38:03.050Z,37.58
2022-10-31T15:40:34.268Z,33.72
2022-10-31T15:43:08.113Z,32.08
2022-10-31T15:45:38.663Z,39.35
2022-10-31T15:48:19.453Z,36.75
2022-10-31T15:50:54.744Z,35.95
2022-10-31T15:53:29.168Z,38.80
2022-10-31T15:56:03.397Z,34.83
2022-10-31T15:58:35.355Z,33.65
2022-10-31T16:01:08.220Z,35.60
2022-10-31T16:03:38.576Z,34.60
2022-10-31T16:06:23.877Z,41.17
2022-10-31T16:08:54.377Z,40.75
2022-10-31T16:11:30.484Z,39.47
2022-10-31T16:14:03.298Z,40.42
2022-10-31T16:16:36.387Z,36.75
2022-10-31T16:19:16.945Z,32.38
2022-10-31T16:21:51.476Z,35.90
2022-10-31T16:24:25.875Z,33.33
2022-10-31T16:27:05.745Z,31.38
2022-10-31T16:29:45.218Z,35.40
2022-10-31T16:32:30.485Z,32.35
2022-10-31T16:35:19.526Z,35.78
2022-10-31T16:37:51.507Z,41.60
2022-10-31T16:42:52.851Z,37.00
2022-10-31T16:45:24.539Z,39.17
2022-10-31T16:47:55.355Z,41.90
2022-10-31T16:50:28.214Z,43.65
2022-10-31T16:53:13.291Z,38.92
2022-10-31T16:55:48.239Z,38.35
2022-10-31T16:58:25.256Z,41.92
2022-10-31T17:00:56.202Z,44.80
2022-10-31T17:03:35.188Z,39.33
2022-10-31T17:06:05.320Z,51.28
2022-10-31T17:11:11.225Z,48.72
2022-10-31T17:13:42.091Z,47.42
2022-10-31T17:16:14.789Z,48.92
2022-10-31T17:18:48.146Z,48.47
2022-10-31T17:21:25.597Z,52.60
2022-10-31T17:23:57.989Z,62.50
2022-10-31T17:26:28.115Z,56.75
2022-10-31T17:29:00.356Z,54.30
2022-10-31T17:31:32.478Z,49.13
2022-10-31T17:34:04.287Z,52.33
2022-10-31T17:39:10.426Z,50.23
2022-10-31T17:41:40.566Z,52.70
2022-10-31T17:44:13.070Z,47.92
2022-10-31T17:46:43.676Z,50.78
2022-10-31T17:49:14.775Z,56.03
2022-10-31T17:51:45.054Z,51.05
2022-10-31T17:54:23.283Z,49.92
2022-10-31T17:56:59.032Z,47.03
2022-10-31T17:59:31.099Z,41.70
2022-10-31T18:02:01.977Z,43.40
2022-10-31T18:04:33.506Z,37.95
2022-10-31T18:07:03.668Z,39.50
2022-10-31T18:09:35.781Z,46.58
2022-10-31T18:12:06.564Z,41.15
2022-10-31T18:14:37.117Z,44.00
2022-10-31T18:17:07.246Z,44.30
2022-10-31T18:19:38.196Z,42.28
2022-10-31T18:22:08.854Z,38.75
2022-10-31T18:24:41.053Z,41.33
2022-10-31T18:27:11.173Z,43.38
2022-10-31T18:29:41.465Z,33.30
2022-10-31T18:32:11.517Z,52.88
2022-10-31T18:34:42.057Z,74.35
2022-10-31T18:37:12.300Z,52.95
2022-10-31T18:39:45.736Z,53.28
2022-10-31T18:42:16.086Z,55.55
2022-10-31T18:44:47.099Z,51.22
2022-10-31T18:47:17.968Z,55.83
2022-10-31T18:49:48.613Z,47.72
2022-10-31T18:52:19.205Z,47.33
2022-10-31T18:54:51.296Z,48.28
2022-10-31T18:57:21.419Z,48.03
2022-10-31T18:59:52.834Z,44.85
2022-10-31T19:02:26.420Z,46.92
2022-10-31T19:04:56.916Z,50.58
2022-10-31T19:07:27.527Z,47.42
2022-10-31T19:09:59.763Z,52.35
2022-10-31T19:12:29.827Z,46.70
2022-10-31T19:15:00.495Z,56.58
2022-10-31T19:17:31.300Z,49.90
2022-10-31T19:20:02.114Z,55.73
2022-10-31T19:22:34.152Z,49.08
2022-10-31T19:25:10.507Z,48.30
2022-10-31T19:27:41.458Z,51.35
2022-10-31T19:30:13.845Z,51.60
2022-10-31T19:32:43.886Z,58.92
2022-10-31T19:35:14.297Z,56.28
2022-10-31T19:37:44.450Z,52.92
2022-10-31T19:40:17.597Z,47.92
2022-10-31T19:42:47.798Z,53.47
2022-10-31T19:45:18.469Z,50.38
2022-10-31T19:47:51.592Z,48.45
2022-10-31T19:50:22.535Z,44.33
2022-10-31T19:53:02.748Z,49.13
2022-10-31T19:55:36.224Z,45.88
2022-10-31T19:58:06.307Z,42.08
2022-10-31T20:00:38.932Z,52.30
2022-10-31T20:03:10.085Z,40.33
2022-10-31T20:05:42.984Z,40.75
2022-10-31T20:08:17.147Z,38.42
2022-10-31T20:11:00.811Z,43.30
2022-10-31T20:13:32.985Z,45.05
2022-10-31T20:16:05.925Z,43.90
2022-10-31T20:18:37.477Z,47.08
2022-10-31T20:21:09.870Z,47.88
2022-10-31T20:23:41.306Z,43.15
2022-10-31T20:28:46.757Z,57.85
2022-10-31T20:31:19.335Z,44.90
2022-10-31T20:33:50.972Z,58.38
2022-10-31T20:36:23.275Z,49.47
2022-10-31T20:38:54.416Z,44.55
2022-10-31T20:43:59.245Z,42.40
2022-10-31T20:46:30.957Z,49.35
2022-10-31T20:51:41.024Z,45.03
2022-10-31T20:54:17.872Z,40.08
2022-10-31T20:56:50.330Z,58.03
2022-10-31T20:59:20.848Z,57.42
2022-10-31T21:04:36.964Z,48.90
2022-10-31T21:07:07.395Z,47.85
2022-10-31T21:09:40.558Z,47.10
2022-10-31T21:12:15.390Z,42.50
2022-10-31T21:17:19.467Z,42.50
2022-10-31T21:19:50.595Z,44.60
2022-10-31T21:22:26.369Z,44.42
2022-10-31T21:24:58.177Z,46.35
2022-10-31T21:27:32.230Z,51.55
2022-10-31T21:30:03.275Z,42.38
2022-10-31T21:32:37.886Z,43.28
2022-10-31T21:35:09.583Z,42.22
2022-10-31T21:37:39.995Z,37.08
2022-10-31T21:40:11.327Z,44.33
2022-10-31T21:42:46.566Z,41.13
2022-10-31T21:45:16.911Z,43.30
2022-10-31T21:47:48.773Z,49.70
2022-10-31T21:50:20.894Z,46.67
2022-10-31T21:52:52.839Z,45.75
2022-10-31T21:57:54.026Z,49.55
2022-10-31T22:00:25.109Z,52.85
2022-10-31T22:05:28.326Z,48.17
2022-10-31T22:07:59.583Z,51.92
2022-10-31T22:10:30.054Z,69.50
2022-10-31T22:13:02.595Z,61.57
2022-10-31T22:15:33.129Z,60.15
2022-10-31T22:18:07.013Z,67.22
2022-10-31T22:20:37.045Z,62.08
2022-10-31T22:23:09.777Z,56.72
2022-10-31T22:25:39.944Z,57.08
2022-10-31T22:28:13.886Z,55.13
2022-10-31T22:30:44.524Z,50.83
2022-10-31T22:33:14.977Z,55.47
2022-10-31T22:35:45.236Z,48.75
2022-10-31T22:38:15.577Z,49.33
2022-10-31T22:40:45.657Z,60.92
2022-10-31T22:43:17.545Z,62.28
2022-10-31T22:46:00.706Z,58.15
2022-10-31T22:48:31.689Z,60.47
2022-10-31T22:51:07.184Z,59.85
2022-10-31T22:53:39.048Z,58.47
2022-10-31T22:58:41.544Z,54.97
2022-10-31T23:01:13.504Z,51.70
2022-10-31T23:03:44.826Z,50.25
2022-10-31T23:06:17.167Z,45.90
2022-10-31T23:08:48.705Z,52.70
2022-10-31T23:11:21.376Z,43.78
2022-10-31T23:14:09.323Z,45.60
2022-10-31T23:16:42.958Z,48.58
2022-10-31T23:19:15.016Z,45.03
2022-10-31T23:22:02.786Z,43.63
2022-10-31T23:24:37.025Z,35.55
2022-10-31T23:27:09.959Z,43.47
2022-10-31T23:29:47.337Z,29.80
2022-10-31T23:32:22.536Z,29.15
2022-10-31T23:34:54.762Z,28.00
2022-10-31T23:37:26.756Z,29.40
2022-10-31T23:39:57.429Z,30.33
2022-10-31T23:42:28.766Z,25.75
2022-10-31T23:45:00.607Z,23.48
2022-10-31T23:50:02.594Z,28.48
2022-10-31T23:52:32.685Z,28.92
2022-10-31T23:55:03.085Z,24.67
2022-10-31T23:57:33.076Z,23.77
